sensor_id;sensor_type;location;lat;lon;timestamp;P1;durP1;ratioP1;P2;durP2;ratioP2
16407;SDS011;8313;49.894;8.084;2022-10-16T00:02:05;2.23;;;1.70;;
16407;SDS011;8313;49.894;8.084;2022-10-16T00:04:31;3.47;;;1.50;;
16407;SDS011;8313;49.894;8.084;2022-10-16T00:06:56;4.80;;;1.40;;
16407;SDS011;8313;49.894;8.084;2022-10-16T00:09:22;1.90;;;1.57;;
16407;SDS011;8313;49.894;8.084;2022-10-16T00:11:48;1.50;;;1.40;;
16407;SDS011;8313;49.894;8.084;2022-10-16T00:14:14;1.77;;;1.30;;
16407;SDS011;8313;49.894;8.084;2022-10-16T00:16:40;3.57;;;1.67;;
16407;SDS011;8313;49.894;8.084;2022-10-16T00:19:07;1.43;;;1.33;;
16407;SDS011;8313;49.894;8.084;2022-10-16T00:21:34;1.53;;;1.43;;
16407;SDS011;8313;49.894;8.084;2022-10-16T00:24:03;1.47;;;1.37;;
16407;SDS011;8313;49.894;8.084;2022-10-16T00:26:31;1.80;;;1.50;;
16407;SDS011;8313;49.894;8.084;2022-10-16T00:28:58;1.87;;;1.73;;
16407;SDS011;8313;49.894;8.084;2022-10-16T00:31:24;1.40;;;1.30;;
16407;SDS011;8313;49.894;8.084;2022-10-16T00:33:50;1.73;;;1.50;;
16407;SDS011;8313;49.894;8.084;2022-10-16T00:36:18;1.63;;;1.33;;
16407;SDS011;8313;49.894;8.084;2022-10-16T00:38:45;1.80;;;1.67;;
16407;SDS011;8313;49.894;8.084;2022-10-16T00:41:13;1.53;;;1.30;;
16407;SDS011;8313;49.894;8.084;2022-10-16T00:46:19;1.70;;;1.60;;
16407;SDS011;8313;49.894;8.084;2022-10-16T00:48:50;3.23;;;1.30;;
16407;SDS011;8313;49.894;8.084;2022-10-16T00:51:21;1.40;;;1.30;;
16407;SDS011;8313;49.894;8.084;2022-10-16T00:53:50;2.40;;;1.50;;
16407;SDS011;8313;49.894;8.084;2022-10-16T00:56:16;1.90;;;1.80;;
16407;SDS011;8313;49.894;8.084;2022-10-16T00:58:43;2.00;;;1.80;;
16407;SDS011;8313;49.894;8.084;2022-10-16T01:01:09;1.63;;;1.53;;
16407;SDS011;8313;49.894;8.084;2022-10-16T01:03:35;1.93;;;1.50;;
16407;SDS011;8313;49.894;8.084;2022-10-16T01:14:30;1.50;;;1.40;;
16407;SDS011;8313;49.894;8.084;2022-10-16T01:17:16;1.57;;;1.47;;
16407;SDS011;8313;49.894;8.084;2022-10-16T01:28:09;1.80;;;1.57;;
16407;SDS011;8313;49.894;8.084;2022-10-16T01:30:37;1.97;;;1.77;;
16407;SDS011;8313;49.894;8.084;2022-10-16T01:33:13;1.60;;;1.50;;
16407;SDS011;8313;49.894;8.084;2022-10-16T01:35:47;1.80;;;1.70;;
16407;SDS011;8313;49.894;8.084;2022-10-16T01:40:49;7.27;;;1.83;;
16407;SDS011;8313;49.894;8.084;2022-10-16T01:43:19;1.90;;;1.80;;
16407;SDS011;8313;49.894;8.084;2022-10-16T01:45:49;1.53;;;1.43;;
16407;SDS011;8313;49.894;8.084;2022-10-16T01:48:17;2.37;;;2.17;;
16407;SDS011;8313;49.894;8.084;2022-10-16T01:50:56;2.10;;;1.90;;
16407;SDS011;8313;49.894;8.084;2022-10-16T01:53:25;1.80;;;1.70;;
16407;SDS011;8313;49.894;8.084;2022-10-16T01:55:52;1.73;;;1.50;;
16407;SDS011;8313;49.894;8.084;2022-10-16T01:58:21;2.00;;;1.90;;
16407;SDS011;8313;49.894;8.084;2022-10-16T02:00:49;1.57;;;1.47;;
16407;SDS011;8313;49.894;8.084;2022-10-16T02:03:17;2.03;;;1.90;;
16407;SDS011;8313;49.894;8.084;2022-10-16T02:05:51;1.47;;;1.37;;
16407;SDS011;8313;49.894;8.084;2022-10-16T02:08:22;1.77;;;1.67;;
16407;SDS011;8313;49.894;8.084;2022-10-16T02:10:50;1.90;;;1.80;;
16407;SDS011;8313;49.894;8.084;2022-10-16T02:13:17;2.20;;;1.60;;
16407;SDS011;8313;49.894;8.084;2022-10-16T02:15:48;2.03;;;1.93;;
16407;SDS011;8313;49.894;8.084;2022-10-16T02:18:14;2.00;;;1.80;;
16407;SDS011;8313;49.894;8.084;2022-10-16T02:20:50;1.97;;;1.87;;
16407;SDS011;8313;49.894;8.084;2022-10-16T02:23:49;1.97;;;1.77;;
16407;SDS011;8313;49.894;8.084;2022-10-16T02:26:30;2.40;;;1.80;;
16407;SDS011;8313;49.894;8.084;2022-10-16T02:29:21;1.87;;;1.77;;
16407;SDS011;8313;49.894;8.084;2022-10-16T02:31:50;4.80;;;2.30;;
16407;SDS011;8313;49.894;8.084;2022-10-16T02:34:21;2.00;;;1.90;;
16407;SDS011;8313;49.894;8.084;2022-10-16T02:36:49;1.83;;;1.60;;
16407;SDS011;8313;49.894;8.084;2022-10-16T02:39:16;1.87;;;1.70;;
16407;SDS011;8313;49.894;8.084;2022-10-16T02:41:43;1.73;;;1.63;;
16407;SDS011;8313;49.894;8.084;2022-10-16T02:44:09;1.97;;;1.77;;
16407;SDS011;8313;49.894;8.084;2022-10-16T02:46:35;1.80;;;1.70;;
16407;SDS011;8313;49.894;8.084;2022-10-16T02:49:00;2.80;;;2.17;;
16407;SDS011;8313;49.894;8.084;2022-10-16T02:51:26;1.80;;;1.70;;
16407;SDS011;8313;49.894;8.084;2022-10-16T02:53:52;1.83;;;1.73;;
16407;SDS011;8313;49.894;8.084;2022-10-16T02:56:17;2.10;;;1.90;;
16407;SDS011;8313;49.894;8.084;2022-10-16T02:58:43;2.27;;;1.80;;
16407;SDS011;8313;49.894;8.084;2022-10-16T03:01:09;4.73;;;1.57;;
16407;SDS011;8313;49.894;8.084;2022-10-16T03:03:37;2.17;;;1.90;;
16407;SDS011;8313;49.894;8.084;2022-10-16T03:06:03;2.10;;;2.00;;
16407;SDS011;8313;49.894;8.084;2022-10-16T03:08:28;1.70;;;1.47;;
16407;SDS011;8313;49.894;8.084;2022-10-16T03:10:54;1.60;;;1.50;;
16407;SDS011;8313;49.894;8.084;2022-10-16T03:13:20;1.90;;;1.63;;
16407;SDS011;8313;49.894;8.084;2022-10-16T03:15:45;3.43;;;1.70;;
16407;SDS011;8313;49.894;8.084;2022-10-16T03:18:11;1.93;;;1.83;;
16407;SDS011;8313;49.894;8.084;2022-10-16T03:20:37;2.17;;;1.97;;
16407;SDS011;8313;49.894;8.084;2022-10-16T03:23:03;1.93;;;1.73;;
16407;SDS011;8313;49.894;8.084;2022-10-16T03:25:28;1.70;;;1.60;;
16407;SDS011;8313;49.894;8.084;2022-10-16T03:27:54;1.40;;;1.30;;
16407;SDS011;8313;49.894;8.084;2022-10-16T03:30:20;3.80;;;1.83;;
16407;SDS011;8313;49.894;8.084;2022-10-16T03:32:46;1.67;;;1.57;;
16407;SDS011;8313;49.894;8.084;2022-10-16T03:35:12;1.70;;;1.30;;
16407;SDS011;8313;49.894;8.084;2022-10-16T03:37:38;1.30;;;1.20;;
16407;SDS011;8313;49.894;8.084;2022-10-16T03:40:04;1.17;;;1.17;;
16407;SDS011;8313;49.894;8.084;2022-10-16T03:42:30;1.53;;;1.20;;
16407;SDS011;8313;49.894;8.084;2022-10-16T03:44:56;1.67;;;1.40;;
16407;SDS011;8313;49.894;8.084;2022-10-16T03:47:21;2.33;;;1.63;;
16407;SDS011;8313;49.894;8.084;2022-10-16T03:49:49;1.90;;;1.60;;
16407;SDS011;8313;49.894;8.084;2022-10-16T03:52:15;1.33;;;1.23;;
16407;SDS011;8313;49.894;8.084;2022-10-16T03:54:41;1.27;;;1.17;;
16407;SDS011;8313;49.894;8.084;2022-10-16T03:57:07;1.13;;;1.10;;
16407;SDS011;8313;49.894;8.084;2022-10-16T03:59:32;1.30;;;1.20;;
16407;SDS011;8313;49.894;8.084;2022-10-16T04:01:58;1.73;;;1.30;;
16407;SDS011;8313;49.894;8.084;2022-10-16T04:04:24;0.80;;;0.80;;
16407;SDS011;8313;49.894;8.084;2022-10-16T04:06:50;1.23;;;1.13;;
16407;SDS011;8313;49.894;8.084;2022-10-16T04:09:16;1.27;;;1.17;;
16407;SDS011;8313;49.894;8.084;2022-10-16T04:11:41;1.10;;;1.10;;
16407;SDS011;8313;49.894;8.084;2022-10-16T04:14:07;2.00;;;1.17;;
16407;SDS011;8313;49.894;8.084;2022-10-16T04:16:33;1.23;;;1.13;;
16407;SDS011;8313;49.894;8.084;2022-10-16T04:18:59;2.97;;;1.20;;
16407;SDS011;8313;49.894;8.084;2022-10-16T04:21:25;2.10;;;1.50;;
16407;SDS011;8313;49.894;8.084;2022-10-16T04:23:51;1.33;;;1.30;;
16407;SDS011;8313;49.894;8.084;2022-10-16T04:26:17;1.60;;;1.20;;
16407;SDS011;8313;49.894;8.084;2022-10-16T04:28:43;1.80;;;1.20;;
16407;SDS011;8313;49.894;8.084;2022-10-16T04:31:08;1.50;;;1.40;;
16407;SDS011;8313;49.894;8.084;2022-10-16T04:33:34;1.00;;;0.97;;
16407;SDS011;8313;49.894;8.084;2022-10-16T04:36:00;1.20;;;1.20;;
16407;SDS011;8313;49.894;8.084;2022-10-16T04:38:27;0.80;;;0.80;;
16407;SDS011;8313;49.894;8.084;2022-10-16T04:40:53;1.43;;;1.33;;
16407;SDS011;8313;49.894;8.084;2022-10-16T04:43:18;1.27;;;1.17;;
16407;SDS011;8313;49.894;8.084;2022-10-16T04:45:45;0.93;;;0.93;;
16407;SDS011;8313;49.894;8.084;2022-10-16T04:48:10;1.17;;;1.10;;
16407;SDS011;8313;49.894;8.084;2022-10-16T04:50:36;1.57;;;1.40;;
16407;SDS011;8313;49.894;8.084;2022-10-16T04:53:04;1.03;;;0.97;;
16407;SDS011;8313;49.894;8.084;2022-10-16T04:55:31;2.17;;;1.60;;
16407;SDS011;8313;49.894;8.084;2022-10-16T04:57:57;2.60;;;1.63;;
16407;SDS011;8313;49.894;8.084;2022-10-16T05:00:23;1.40;;;1.30;;
16407;SDS011;8313;49.894;8.084;2022-10-16T05:02:51;1.10;;;1.10;;
16407;SDS011;8313;49.894;8.084;2022-10-16T05:05:17;1.70;;;1.60;;
16407;SDS011;8313;49.894;8.084;2022-10-16T05:07:45;1.20;;;1.20;;
16407;SDS011;8313;49.894;8.084;2022-10-16T05:10:11;0.90;;;0.90;;
16407;SDS011;8313;49.894;8.084;2022-10-16T05:12:37;1.30;;;1.20;;
16407;SDS011;8313;49.894;8.084;2022-10-16T05:15:02;1.50;;;1.40;;
16407;SDS011;8313;49.894;8.084;2022-10-16T05:17:29;1.30;;;1.20;;
16407;SDS011;8313;49.894;8.084;2022-10-16T05:19:54;6.70;;;1.40;;
16407;SDS011;8313;49.894;8.084;2022-10-16T05:22:20;2.83;;;1.40;;
16407;SDS011;8313;49.894;8.084;2022-10-16T05:24:46;1.83;;;1.33;;
16407;SDS011;8313;49.894;8.084;2022-10-16T05:27:12;2.63;;;1.70;;
16407;SDS011;8313;49.894;8.084;2022-10-16T05:29:44;1.43;;;1.33;;
16407;SDS011;8313;49.894;8.084;2022-10-16T05:32:11;1.80;;;1.40;;
16407;SDS011;8313;49.894;8.084;2022-10-16T05:34:37;1.17;;;1.13;;
16407;SDS011;8313;49.894;8.084;2022-10-16T05:37:03;1.00;;;1.00;;
16407;SDS011;8313;49.894;8.084;2022-10-16T05:39:29;1.20;;;1.20;;
16407;SDS011;8313;49.894;8.084;2022-10-16T05:41:54;1.57;;;1.40;;
16407;SDS011;8313;49.894;8.084;2022-10-16T05:44:20;1.13;;;1.03;;
16407;SDS011;8313;49.894;8.084;2022-10-16T05:46:46;1.10;;;1.10;;
16407;SDS011;8313;49.894;8.084;2022-10-16T05:49:12;2.93;;;1.10;;
16407;SDS011;8313;49.894;8.084;2022-10-16T05:51:37;1.03;;;1.03;;
16407;SDS011;8313;49.894;8.084;2022-10-16T05:54:03;1.40;;;1.30;;
16407;SDS011;8313;49.894;8.084;2022-10-16T05:56:29;1.30;;;1.20;;
16407;SDS011;8313;49.894;8.084;2022-10-16T05:58:54;1.20;;;1.10;;
16407;SDS011;8313;49.894;8.084;2022-10-16T06:01:20;0.80;;;0.80;;
16407;SDS011;8313;49.894;8.084;2022-10-16T06:03:49;1.40;;;1.30;;
16407;SDS011;8313;49.894;8.084;2022-10-16T06:06:20;1.30;;;1.20;;
16407;SDS011;8313;49.894;8.084;2022-10-16T06:08:48;2.90;;;1.30;;
16407;SDS011;8313;49.894;8.084;2022-10-16T06:11:15;1.67;;;1.30;;
16407;SDS011;8313;49.894;8.084;2022-10-16T06:13:43;1.40;;;1.33;;
16407;SDS011;8313;49.894;8.084;2022-10-16T06:16:11;1.80;;;1.70;;
16407;SDS011;8313;49.894;8.084;2022-10-16T06:18:38;1.53;;;1.40;;
16407;SDS011;8313;49.894;8.084;2022-10-16T06:21:10;1.30;;;1.20;;
16407;SDS011;8313;49.894;8.084;2022-10-16T06:23:39;1.57;;;1.40;;
16407;SDS011;8313;49.894;8.084;2022-10-16T06:26:08;2.30;;;2.03;;
16407;SDS011;8313;49.894;8.084;2022-10-16T06:28:35;2.20;;;2.00;;
16407;SDS011;8313;49.894;8.084;2022-10-16T06:31:02;2.00;;;1.90;;
16407;SDS011;8313;49.894;8.084;2022-10-16T06:33:29;2.30;;;1.40;;
16407;SDS011;8313;49.894;8.084;2022-10-16T06:36:16;3.03;;;1.47;;
16407;SDS011;8313;49.894;8.084;2022-10-16T06:38:42;1.60;;;1.50;;
16407;SDS011;8313;49.894;8.084;2022-10-16T06:41:09;2.50;;;1.50;;
16407;SDS011;8313;49.894;8.084;2022-10-16T06:43:37;2.30;;;2.00;;
16407;SDS011;8313;49.894;8.084;2022-10-16T06:46:04;1.83;;;1.73;;
16407;SDS011;8313;49.894;8.084;2022-10-16T06:48:34;2.80;;;1.93;;
16407;SDS011;8313;49.894;8.084;2022-10-16T06:51:02;2.10;;;1.90;;
16407;SDS011;8313;49.894;8.084;2022-10-16T06:53:31;8.10;;;2.27;;
16407;SDS011;8313;49.894;8.084;2022-10-16T06:56:06;2.50;;;2.30;;
16407;SDS011;8313;49.894;8.084;2022-10-16T06:58:36;2.80;;;2.60;;
16407;SDS011;8313;49.894;8.084;2022-10-16T07:01:02;2.77;;;2.57;;
16407;SDS011;8313;49.894;8.084;2022-10-16T07:03:29;2.60;;;2.33;;
16407;SDS011;8313;49.894;8.084;2022-10-16T07:05:54;2.70;;;2.50;;
16407;SDS011;8313;49.894;8.084;2022-10-16T07:08:21;2.67;;;2.33;;
16407;SDS011;8313;49.894;8.084;2022-10-16T07:10:47;6.33;;;3.03;;
16407;SDS011;8313;49.894;8.084;2022-10-16T07:13:12;2.53;;;2.33;;
16407;SDS011;8313;49.894;8.084;2022-10-16T07:15:39;2.63;;;2.43;;
16407;SDS011;8313;49.894;8.084;2022-10-16T07:18:06;3.10;;;2.70;;
16407;SDS011;8313;49.894;8.084;2022-10-16T07:20:32;4.40;;;3.40;;
16407;SDS011;8313;49.894;8.084;2022-10-16T07:22:58;4.33;;;3.90;;
16407;SDS011;8313;49.894;8.084;2022-10-16T07:25:23;3.97;;;3.30;;
16407;SDS011;8313;49.894;8.084;2022-10-16T07:27:49;3.00;;;2.80;;
16407;SDS011;8313;49.894;8.084;2022-10-16T07:30:15;3.20;;;2.90;;
16407;SDS011;8313;49.894;8.084;2022-10-16T07:32:41;3.70;;;3.40;;
16407;SDS011;8313;49.894;8.084;2022-10-16T07:35:07;3.87;;;2.53;;
16407;SDS011;8313;49.894;8.084;2022-10-16T07:37:33;4.67;;;3.30;;
16407;SDS011;8313;49.894;8.084;2022-10-16T07:39:59;4.63;;;3.57;;
16407;SDS011;8313;49.894;8.084;2022-10-16T07:42:24;4.27;;;3.90;;
16407;SDS011;8313;49.894;8.084;2022-10-16T07:44:50;5.20;;;3.97;;
16407;SDS011;8313;49.894;8.084;2022-10-16T07:47:16;3.33;;;3.03;;
16407;SDS011;8313;49.894;8.084;2022-10-16T07:49:42;3.80;;;3.50;;
16407;SDS011;8313;49.894;8.084;2022-10-16T07:52:08;2.60;;;2.40;;
16407;SDS011;8313;49.894;8.084;2022-10-16T07:54:34;3.10;;;2.80;;
16407;SDS011;8313;49.894;8.084;2022-10-16T07:57:00;3.73;;;2.77;;
16407;SDS011;8313;49.894;8.084;2022-10-16T07:59:25;1.90;;;1.70;;
16407;SDS011;8313;49.894;8.084;2022-10-16T08:01:51;2.00;;;1.73;;
16407;SDS011;8313;49.894;8.084;2022-10-16T08:04:17;2.10;;;1.90;;
16407;SDS011;8313;49.894;8.084;2022-10-16T08:06:43;1.90;;;1.73;;
16407;SDS011;8313;49.894;8.084;2022-10-16T08:09:08;2.90;;;2.00;;
16407;SDS011;8313;49.894;8.084;2022-10-16T08:11:34;2.77;;;1.77;;
16407;SDS011;8313;49.894;8.084;2022-10-16T08:14:00;2.07;;;1.90;;
16407;SDS011;8313;49.894;8.084;2022-10-16T08:16:26;2.13;;;2.03;;
16407;SDS011;8313;49.894;8.084;2022-10-16T08:18:52;3.00;;;2.00;;
16407;SDS011;8313;49.894;8.084;2022-10-16T08:21:19;1.97;;;1.80;;
16407;SDS011;8313;49.894;8.084;2022-10-16T08:23:47;1.80;;;1.70;;
16407;SDS011;8313;49.894;8.084;2022-10-16T08:26:14;1.57;;;1.47;;
16407;SDS011;8313;49.894;8.084;2022-10-16T08:28:40;6.23;;;2.47;;
16407;SDS011;8313;49.894;8.084;2022-10-16T08:31:09;2.10;;;1.90;;
16407;SDS011;8313;49.894;8.084;2022-10-16T08:33:37;2.00;;;1.90;;
16407;SDS011;8313;49.894;8.084;2022-10-16T08:36:06;2.13;;;1.93;;
16407;SDS011;8313;49.894;8.084;2022-10-16T08:38:32;2.70;;;1.80;;
16407;SDS011;8313;49.894;8.084;2022-10-16T08:41:13;1.80;;;1.70;;
16407;SDS011;8313;49.894;8.084;2022-10-16T08:50:12;1.80;;;1.70;;
16407;SDS011;8313;49.894;8.084;2022-10-16T08:52:43;1.70;;;1.53;;
16407;SDS011;8313;49.894;8.084;2022-10-16T08:57:54;2.90;;;1.90;;
16407;SDS011;8313;49.894;8.084;2022-10-16T09:00:20;2.57;;;2.17;;
16407;SDS011;8313;49.894;8.084;2022-10-16T09:03:10;1.70;;;1.60;;
16407;SDS011;8313;49.894;8.084;2022-10-16T09:19:46;1.80;;;1.70;;
16407;SDS011;8313;49.894;8.084;2022-10-16T09:22:21;1.90;;;1.80;;
16407;SDS011;8313;49.894;8.084;2022-10-16T09:24:54;2.23;;;1.93;;
16407;SDS011;8313;49.894;8.084;2022-10-16T09:27:24;1.73;;;1.63;;
16407;SDS011;8313;49.894;8.084;2022-10-16T09:29:51;1.73;;;1.63;;
16407;SDS011;8313;49.894;8.084;2022-10-16T09:32:18;2.23;;;1.87;;
16407;SDS011;8313;49.894;8.084;2022-10-16T09:34:47;2.00;;;1.90;;
16407;SDS011;8313;49.894;8.084;2022-10-16T09:37:17;2.20;;;1.80;;
16407;SDS011;8313;49.894;8.084;2022-10-16T09:44:55;3.33;;;2.37;;
16407;SDS011;8313;49.894;8.084;2022-10-16T09:47:31;3.50;;;2.67;;
16407;SDS011;8313;49.894;8.084;2022-10-16T09:50:13;3.17;;;2.87;;
16407;SDS011;8313;49.894;8.084;2022-10-16T09:52:47;4.60;;;2.90;;
16407;SDS011;8313;49.894;8.084;2022-10-16T09:55:14;4.30;;;2.50;;
16407;SDS011;8313;49.894;8.084;2022-10-16T10:00:19;2.90;;;2.70;;
16407;SDS011;8313;49.894;8.084;2022-10-16T10:02:47;2.50;;;2.30;;
16407;SDS011;8313;49.894;8.084;2022-10-16T10:05:17;2.50;;;2.30;;
16407;SDS011;8313;49.894;8.084;2022-10-16T10:07:44;2.17;;;2.07;;
16407;SDS011;8313;49.894;8.084;2022-10-16T10:10:21;2.60;;;2.40;;
16407;SDS011;8313;49.894;8.084;2022-10-16T10:12:52;2.80;;;2.33;;
16407;SDS011;8313;49.894;8.084;2022-10-16T10:15:19;1.90;;;1.80;;
16407;SDS011;8313;49.894;8.084;2022-10-16T10:17:48;2.83;;;2.07;;
16407;SDS011;8313;49.894;8.084;2022-10-16T10:20:28;2.07;;;1.97;;
16407;SDS011;8313;49.894;8.084;2022-10-16T10:22:54;1.40;;;1.30;;
16407;SDS011;8313;49.894;8.084;2022-10-16T10:31:25;1.73;;;1.63;;
16407;SDS011;8313;49.894;8.084;2022-10-16T10:36:44;2.00;;;1.90;;
16407;SDS011;8313;49.894;8.084;2022-10-16T10:39:29;1.90;;;1.80;;
16407;SDS011;8313;49.894;8.084;2022-10-16T10:42:09;4.23;;;1.80;;
16407;SDS011;8313;49.894;8.084;2022-10-16T11:02:04;1.93;;;1.77;;
16407;SDS011;8313;49.894;8.084;2022-10-16T11:08:00;1.97;;;1.70;;
16407;SDS011;8313;49.894;8.084;2022-10-16T11:10:31;1.83;;;1.70;;
16407;SDS011;8313;49.894;8.084;2022-10-16T11:13:14;1.80;;;1.43;;
16407;SDS011;8313;49.894;8.084;2022-10-16T11:15:45;2.33;;;1.80;;
16407;SDS011;8313;49.894;8.084;2022-10-16T11:18:30;1.70;;;1.60;;
16407;SDS011;8313;49.894;8.084;2022-10-16T11:21:04;2.40;;;2.20;;
16407;SDS011;8313;49.894;8.084;2022-10-16T11:26:11;1.60;;;1.50;;
16407;SDS011;8313;49.894;8.084;2022-10-16T11:28:47;1.93;;;1.83;;
16407;SDS011;8313;49.894;8.084;2022-10-16T11:36:45;2.00;;;1.90;;
16407;SDS011;8313;49.894;8.084;2022-10-16T11:39:20;2.10;;;1.50;;
16407;SDS011;8313;49.894;8.084;2022-10-16T11:55:47;3.30;;;2.20;;
16407;SDS011;8313;49.894;8.084;2022-10-16T11:58:24;5.30;;;1.93;;
16407;SDS011;8313;49.894;8.084;2022-10-16T12:03:44;2.10;;;2.00;;
16407;SDS011;8313;49.894;8.084;2022-10-16T12:09:32;2.67;;;1.80;;
16407;SDS011;8313;49.894;8.084;2022-10-16T12:11:57;2.00;;;1.90;;
16407;SDS011;8313;49.894;8.084;2022-10-16T12:22:50;1.87;;;1.77;;
16407;SDS011;8313;49.894;8.084;2022-10-16T12:25:24;2.30;;;2.10;;
16407;SDS011;8313;49.894;8.084;2022-10-16T12:27:57;2.40;;;2.17;;
16407;SDS011;8313;49.894;8.084;2022-10-16T12:30:29;1.90;;;1.80;;
16407;SDS011;8313;49.894;8.084;2022-10-16T12:32:57;4.33;;;2.27;;
16407;SDS011;8313;49.894;8.084;2022-10-16T12:35:28;2.17;;;1.97;;
16407;SDS011;8313;49.894;8.084;2022-10-16T12:41:02;2.57;;;2.37;;
16407;SDS011;8313;49.894;8.084;2022-10-16T12:43:41;4.70;;;2.20;;
16407;SDS011;8313;49.894;8.084;2022-10-16T12:48:39;2.40;;;2.23;;
16407;SDS011;8313;49.894;8.084;2022-10-16T13:05:30;3.63;;;3.33;;
16407;SDS011;8313;49.894;8.084;2022-10-16T13:11:17;3.20;;;3.00;;
16407;SDS011;8313;49.894;8.084;2022-10-16T13:25:40;4.00;;;3.70;;
16407;SDS011;8313;49.894;8.084;2022-10-16T13:28:11;4.30;;;3.50;;
16407;SDS011;8313;49.894;8.084;2022-10-16T13:30:39;4.00;;;3.60;;
16407;SDS011;8313;49.894;8.084;2022-10-16T13:35:52;3.10;;;2.90;;
16407;SDS011;8313;49.894;8.084;2022-10-16T13:38:20;4.00;;;3.70;;
16407;SDS011;8313;49.894;8.084;2022-10-16T13:40:51;4.00;;;3.70;;
16407;SDS011;8313;49.894;8.084;2022-10-16T13:43:20;3.80;;;3.30;;
16407;SDS011;8313;49.894;8.084;2022-10-16T13:45:53;4.30;;;3.83;;
16407;SDS011;8313;49.894;8.084;2022-10-16T13:48:20;3.67;;;3.37;;
16407;SDS011;8313;49.894;8.084;2022-10-16T13:50:46;3.77;;;3.50;;
16407;SDS011;8313;49.894;8.084;2022-10-16T13:53:22;3.70;;;3.40;;
16407;SDS011;8313;49.894;8.084;2022-10-16T13:55:48;3.60;;;3.30;;
16407;SDS011;8313;49.894;8.084;2022-10-16T13:58:14;6.27;;;3.70;;
16407;SDS011;8313;49.894;8.084;2022-10-16T14:00:40;4.00;;;3.70;;
16407;SDS011;8313;49.894;8.084;2022-10-16T14:03:18;3.83;;;3.53;;
16407;SDS011;8313;49.894;8.084;2022-10-16T14:05:52;3.93;;;3.50;;
16407;SDS011;8313;49.894;8.084;2022-10-16T14:08:21;4.10;;;3.80;;
16407;SDS011;8313;49.894;8.084;2022-10-16T14:10:51;4.00;;;3.63;;
16407;SDS011;8313;49.894;8.084;2022-10-16T14:13:20;4.00;;;3.60;;
16407;SDS011;8313;49.894;8.084;2022-10-16T14:15:53;3.70;;;3.40;;
16407;SDS011;8313;49.894;8.084;2022-10-16T14:18:21;4.07;;;3.77;;
16407;SDS011;8313;49.894;8.084;2022-10-16T14:20:49;5.60;;;3.77;;
16407;SDS011;8313;49.894;8.084;2022-10-16T14:23:29;3.20;;;3.00;;
16407;SDS011;8313;49.894;8.084;2022-10-16T14:28:36;3.87;;;3.50;;
16407;SDS011;8313;49.894;8.084;2022-10-16T14:31:16;4.13;;;3.83;;
16407;SDS011;8313;49.894;8.084;2022-10-16T14:33:45;4.40;;;4.10;;
16407;SDS011;8313;49.894;8.084;2022-10-16T14:38:37;3.53;;;3.27;;
16407;SDS011;8313;49.894;8.084;2022-10-16T14:41:04;4.43;;;3.60;;
16407;SDS011;8313;49.894;8.084;2022-10-16T14:43:32;4.23;;;3.70;;
16407;SDS011;8313;49.894;8.084;2022-10-16T14:46:11;5.80;;;4.57;;
16407;SDS011;8313;49.894;8.084;2022-10-16T14:48:42;5.63;;;5.23;;
16407;SDS011;8313;49.894;8.084;2022-10-16T14:51:14;4.47;;;4.10;;
16407;SDS011;8313;49.894;8.084;2022-10-16T14:53:42;3.80;;;3.50;;
16407;SDS011;8313;49.894;8.084;2022-10-16T14:56:08;4.53;;;4.00;;
16407;SDS011;8313;49.894;8.084;2022-10-16T14:58:42;4.23;;;3.83;;
16407;SDS011;8313;49.894;8.084;2022-10-16T15:01:09;3.97;;;3.67;;
16407;SDS011;8313;49.894;8.084;2022-10-16T15:03:37;5.10;;;4.40;;
16407;SDS011;8313;49.894;8.084;2022-10-16T15:06:03;4.20;;;3.83;;
16407;SDS011;8313;49.894;8.084;2022-10-16T15:08:32;3.93;;;3.63;;
16407;SDS011;8313;49.894;8.084;2022-10-16T15:10:58;3.60;;;3.30;;
16407;SDS011;8313;49.894;8.084;2022-10-16T15:13:23;3.80;;;3.50;;
16407;SDS011;8313;49.894;8.084;2022-10-16T15:15:49;4.00;;;3.70;;
16407;SDS011;8313;49.894;8.084;2022-10-16T15:18:15;4.10;;;3.73;;
16407;SDS011;8313;49.894;8.084;2022-10-16T15:20:45;3.50;;;3.20;;
16407;SDS011;8313;49.894;8.084;2022-10-16T15:23:13;5.70;;;3.57;;
16407;SDS011;8313;49.894;8.084;2022-10-16T15:25:45;6.50;;;4.10;;
16407;SDS011;8313;49.894;8.084;2022-10-16T15:28:19;4.57;;;4.17;;
16407;SDS011;8313;49.894;8.084;2022-10-16T15:30:46;3.93;;;3.63;;
16407;SDS011;8313;49.894;8.084;2022-10-16T15:33:17;4.57;;;4.17;;
16407;SDS011;8313;49.894;8.084;2022-10-16T15:35:46;3.77;;;3.57;;
16407;SDS011;8313;49.894;8.084;2022-10-16T15:38:13;3.80;;;3.50;;
16407;SDS011;8313;49.894;8.084;2022-10-16T15:40:39;4.13;;;3.83;;
16407;SDS011;8313;49.894;8.084;2022-10-16T15:43:06;3.83;;;3.53;;
16407;SDS011;8313;49.894;8.084;2022-10-16T15:45:32;4.70;;;3.80;;
16407;SDS011;8313;49.894;8.084;2022-10-16T15:47:58;4.20;;;3.90;;
16407;SDS011;8313;49.894;8.084;2022-10-16T15:50:24;4.20;;;3.80;;
16407;SDS011;8313;49.894;8.084;2022-10-16T15:52:51;4.13;;;3.83;;
16407;SDS011;8313;49.894;8.084;2022-10-16T15:55:17;4.30;;;4.00;;
16407;SDS011;8313;49.894;8.084;2022-10-16T15:57:46;4.10;;;3.80;;
16407;SDS011;8313;49.894;8.084;2022-10-16T16:00:13;7.47;;;3.93;;
16407;SDS011;8313;49.894;8.084;2022-10-16T16:02:41;3.37;;;3.17;;
16407;SDS011;8313;49.894;8.084;2022-10-16T16:05:08;3.50;;;3.20;;
16407;SDS011;8313;49.894;8.084;2022-10-16T16:07:36;3.73;;;3.43;;
16407;SDS011;8313;49.894;8.084;2022-10-16T16:10:04;4.20;;;3.50;;
16407;SDS011;8313;49.894;8.084;2022-10-16T16:12:33;4.07;;;3.67;;
16407;SDS011;8313;49.894;8.084;2022-10-16T16:14:59;4.37;;;3.80;;
16407;SDS011;8313;49.894;8.084;2022-10-16T16:17:25;3.83;;;3.40;;
16407;SDS011;8313;49.894;8.084;2022-10-16T16:19:50;3.73;;;3.43;;
16407;SDS011;8313;49.894;8.084;2022-10-16T16:22:16;3.67;;;3.37;;
16407;SDS011;8313;49.894;8.084;2022-10-16T16:24:42;3.97;;;3.57;;
16407;SDS011;8313;49.894;8.084;2022-10-16T16:27:08;7.63;;;3.30;;
16407;SDS011;8313;49.894;8.084;2022-10-16T16:29:34;3.83;;;3.53;;
16407;SDS011;8313;49.894;8.084;2022-10-16T16:32:00;4.30;;;3.90;;
16407;SDS011;8313;49.894;8.084;2022-10-16T16:34:26;4.30;;;3.90;;
16407;SDS011;8313;49.894;8.084;2022-10-16T16:36:53;4.60;;;4.13;;
16407;SDS011;8313;49.894;8.084;2022-10-16T16:39:19;4.50;;;4.03;;
16407;SDS011;8313;49.894;8.084;2022-10-16T16:41:45;5.83;;;4.50;;
16407;SDS011;8313;49.894;8.084;2022-10-16T16:44:11;6.30;;;4.80;;
16407;SDS011;8313;49.894;8.084;2022-10-16T16:46:38;4.93;;;4.43;;
16407;SDS011;8313;49.894;8.084;2022-10-16T16:49:04;4.10;;;3.80;;
16407;SDS011;8313;49.894;8.084;2022-10-16T16:51:31;6.40;;;3.90;;
16407;SDS011;8313;49.894;8.084;2022-10-16T16:53:57;5.57;;;5.07;;
16407;SDS011;8313;49.894;8.084;2022-10-16T16:56:24;5.70;;;4.60;;
16407;SDS011;8313;49.894;8.084;2022-10-16T16:58:51;5.93;;;4.50;;
16407;SDS011;8313;49.894;8.084;2022-10-16T17:01:20;4.57;;;4.17;;
16407;SDS011;8313;49.894;8.084;2022-10-16T17:03:47;5.00;;;4.50;;
16407;SDS011;8313;49.894;8.084;2022-10-16T17:06:15;5.20;;;4.80;;
16407;SDS011;8313;49.894;8.084;2022-10-16T17:08:41;3.97;;;3.67;;
16407;SDS011;8313;49.894;8.084;2022-10-16T17:11:14;5.20;;;3.77;;
16407;SDS011;8313;49.894;8.084;2022-10-16T17:13:42;5.37;;;4.50;;
16407;SDS011;8313;49.894;8.084;2022-10-16T17:16:08;4.17;;;3.77;;
16407;SDS011;8313;49.894;8.084;2022-10-16T17:18:34;4.50;;;4.10;;
16407;SDS011;8313;49.894;8.084;2022-10-16T17:21:00;4.80;;;4.40;;
16407;SDS011;8313;49.894;8.084;2022-10-16T17:23:28;6.50;;;5.57;;
16407;SDS011;8313;49.894;8.084;2022-10-16T17:25:54;5.90;;;5.30;;
16407;SDS011;8313;49.894;8.084;2022-10-16T17:28:20;7.57;;;5.77;;
16407;SDS011;8313;49.894;8.084;2022-10-16T17:30:46;5.33;;;4.83;;
16407;SDS011;8313;49.894;8.084;2022-10-16T17:33:12;6.80;;;5.40;;
16407;SDS011;8313;49.894;8.084;2022-10-16T17:35:39;7.30;;;6.00;;
16407;SDS011;8313;49.894;8.084;2022-10-16T17:38:06;8.77;;;6.00;;
16407;SDS011;8313;49.894;8.084;2022-10-16T17:40:32;4.80;;;4.30;;
16407;SDS011;8313;49.894;8.084;2022-10-16T17:42:58;5.77;;;5.20;;
16407;SDS011;8313;49.894;8.084;2022-10-16T17:45:24;8.67;;;6.03;;
16407;SDS011;8313;49.894;8.084;2022-10-16T17:47:50;5.67;;;5.10;;
16407;SDS011;8313;49.894;8.084;2022-10-16T17:50:16;5.67;;;4.90;;